createdAt,value
2019-02-27T00:01:33.399Z,24.60
2019-02-27T00:04:03.003Z,24.83
2019-02-27T00:06:32.079Z,26.40
2019-02-27T00:09:01.486Z,25.70
2019-02-27T00:11:30.667Z,25.60
2019-02-27T00:14:05.448Z,25.27
2019-02-27T00:16:34.522Z,25.03
2019-02-27T00:19:04.193Z,24.73
2019-02-27T00:21:33.077Z,24.43
2019-02-27T00:24:05.996Z,24.07
2019-02-27T00:26:39.523Z,24.73
2019-02-27T00:29:10.206Z,23.47
2019-02-27T00:31:45.269Z,24.30
2019-02-27T00:34:13.092Z,24.57
2019-02-27T00:36:44.875Z,24.97
2019-02-27T00:39:15.174Z,24.17
2019-02-27T00:41:46.028Z,24.23
2019-02-27T00:44:14.982Z,23.87
2019-02-27T00:46:46.335Z,24.50
2019-02-27T00:49:14.672Z,24.80
2019-02-27T00:51:44.976Z,25.00
2019-02-27T00:54:14.768Z,25.57
2019-02-27T00:56:47.046Z,24.43
2019-02-27T00:59:16.526Z,26.37
2019-02-27T01:01:47.977Z,26.70
2019-02-27T01:04:17.375Z,25.80
2019-02-27T01:06:47.613Z,25.90
2019-02-27T01:09:17.995Z,24.30
2019-02-27T01:11:51.515Z,26.20
2019-02-27T01:14:17.562Z,26.50
2019-02-27T01:16:47.700Z,25.67
2019-02-27T01:19:19.170Z,25.00
2019-02-27T01:21:48.055Z,26.13
2019-02-27T01:24:17.463Z,26.37
2019-02-27T01:26:47.390Z,26.23
2019-02-27T01:29:18.102Z,25.80
2019-02-27T01:31:47.354Z,27.47
2019-02-27T01:34:16.202Z,27.27
2019-02-27T01:36:45.084Z,27.83
2019-02-27T01:39:16.512Z,26.77
2019-02-27T01:41:48.969Z,27.07
2019-02-27T01:44:17.843Z,27.10
2019-02-27T01:46:47.190Z,25.60
2019-02-27T01:49:16.798Z,25.93
2019-02-27T01:51:46.026Z,27.60
2019-02-27T01:54:16.880Z,27.33
2019-02-27T01:56:46.166Z,26.33
2019-02-27T01:59:16.898Z,25.83
2019-02-27T02:01:48.832Z,26.50
2019-02-27T02:04:20.277Z,26.53
2019-02-27T02:06:48.614Z,27.60
2019-02-27T02:09:32.648Z,27.40
2019-02-27T02:12:02.910Z,26.13
2019-02-27T02:15:05.361Z,27.90
2019-02-27T02:18:08.059Z,29.53
2019-02-27T02:21:15.429Z,28.87
2019-02-27T02:24:23.114Z,28.50
2019-02-27T02:27:01.201Z,29.80
2019-02-27T02:30:17.786Z,29.23
2019-02-27T02:33:49.219Z,29.57
2019-02-27T02:36:41.401Z,28.63
2019-02-27T02:39:25.151Z,29.97
2019-02-27T02:42:01.219Z,29.53
2019-02-27T02:45:20.683Z,26.87
2019-02-27T02:48:15.145Z,28.30
2019-02-27T02:51:16.056Z,26.97
2019-02-27T02:54:14.768Z,26.87
2019-02-27T02:57:14.189Z,26.17
2019-02-27T03:00:42.285Z,26.03
2019-02-27T03:03:49.378Z,26.23
2019-02-27T03:06:53.659Z,25.97
2019-02-27T03:10:06.576Z,27.13
2019-02-27T03:13:15.536Z,26.77
2019-02-27T03:16:07.439Z,27.30
2019-02-27T03:18:52.569Z,27.13
2019-02-27T03:22:03.260Z,26.80
2019-02-27T03:25:03.462Z,27.27
2019-02-27T03:28:05.037Z,26.80
2019-02-27T03:31:36.280Z,25.73
2019-02-27T03:34:50.493Z,26.57
2019-02-27T03:37:48.386Z,27.67
2019-02-27T03:40:38.010Z,27.77
2019-02-27T03:43:51.856Z,29.97
2019-02-27T03:46:41.882Z,28.07
2019-02-27T03:49:58.025Z,30.10
2019-02-27T03:53:03.937Z,27.70
2019-02-27T03:56:19.959Z,28.90
2019-02-27T03:59:42.434Z,29.20
2019-02-27T04:02:55.573Z,30.80
2019-02-27T04:05:56.720Z,30.90
2019-02-27T04:09:00.725Z,31.43
2019-02-27T04:11:30.201Z,29.63
2019-02-27T04:14:04.061Z,26.73
2019-02-27T04:16:32.680Z,26.23
2019-02-27T04:19:04.632Z,25.93
2019-02-27T04:21:33.188Z,23.47
2019-02-27T04:24:02.397Z,23.90
2019-02-27T04:26:31.952Z,22.03
2019-02-27T04:29:04.154Z,21.83
2019-02-27T04:31:31.524Z,22.23
2019-02-27T04:34:01.277Z,20.83
2019-02-27T04:36:30.762Z,20.77
2019-02-27T04:39:00.014Z,21.73
2019-02-27T04:41:30.647Z,20.13
2019-02-27T04:43:59.569Z,21.73
2019-02-27T04:46:28.867Z,22.17
2019-02-27T04:48:57.791Z,23.03
2019-02-27T04:51:26.727Z,21.97
2019-02-27T04:53:55.534Z,22.40
2019-02-27T04:56:26.751Z,21.77
2019-02-27T04:58:55.594Z,21.70
2019-02-27T05:01:25.371Z,22.70
2019-02-27T05:03:54.288Z,22.40
2019-02-27T05:06:23.899Z,22.43
2019-02-27T05:08:52.706Z,23.10
2019-02-27T05:11:22.201Z,22.33
2019-02-27T05:13:54.081Z,22.40
2019-02-27T05:16:23.310Z,23.40
2019-02-27T05:18:52.283Z,23.33
2019-02-27T05:21:21.117Z,23.33
2019-02-27T05:23:50.225Z,23.00
2019-02-27T05:26:19.139Z,24.10
2019-02-27T05:28:54.572Z,23.50
2019-02-27T05:31:23.782Z,24.50
2019-02-27T05:33:52.785Z,26.90
2019-02-27T05:36:22.523Z,26.37
2019-02-27T05:38:52.298Z,26.63
2019-02-27T05:41:21.359Z,24.93
2019-02-27T05:43:50.183Z,25.10
2019-02-27T05:48:55.226Z,25.00
2019-02-27T05:51:24.518Z,25.03
2019-02-27T05:53:53.432Z,25.30
2019-02-27T05:56:22.347Z,24.53
2019-02-27T05:58:55.902Z,24.00
2019-02-27T06:01:23.161Z,24.60
2019-02-27T06:03:52.955Z,25.23
2019-02-27T06:06:21.935Z,24.53
2019-02-27T06:08:51.163Z,24.90
2019-02-27T06:11:20.090Z,22.93
2019-02-27T06:13:49.008Z,24.77
2019-02-27T06:16:17.963Z,27.33
2019-02-27T06:18:46.950Z,27.43
2019-02-27T06:21:16.651Z,27.57
2019-02-27T06:23:46.413Z,28.40
2019-02-27T06:26:15.296Z,26.20
2019-02-27T06:28:44.573Z,25.47
2019-02-27T06:31:13.482Z,25.60
2019-02-27T06:33:45.095Z,24.07
2019-02-27T06:36:15.466Z,23.50
2019-02-27T06:38:44.517Z,24.43
2019-02-27T06:41:15.671Z,23.17
2019-02-27T06:43:44.111Z,23.00
2019-02-27T06:46:13.721Z,23.27
2019-02-27T06:48:44.814Z,21.87
2019-02-27T06:51:25.948Z,21.70
2019-02-27T06:53:57.999Z,21.83
2019-02-27T06:56:26.973Z,23.37
2019-02-27T06:58:56.951Z,20.43
2019-02-27T07:01:26.325Z,20.70
2019-02-27T07:03:55.281Z,22.23
2019-02-27T07:06:24.169Z,21.13
2019-02-27T07:08:53.175Z,21.83
2019-02-27T07:11:23.268Z,20.00
2019-02-27T07:13:52.170Z,22.10
2019-02-27T07:18:57.260Z,20.80
2019-02-27T07:21:26.237Z,20.10
2019-02-27T07:23:58.536Z,20.87
2019-02-27T07:26:25.772Z,20.67
2019-02-27T07:28:54.681Z,19.67
2019-02-27T07:31:23.649Z,21.00
2019-02-27T07:33:52.706Z,20.07
2019-02-27T07:36:25.035Z,20.10
2019-02-27T07:38:57.650Z,20.17
2019-02-27T07:41:26.286Z,20.17
2019-02-27T07:43:55.982Z,20.40
2019-02-27T07:46:25.272Z,20.17
2019-02-27T07:48:56.720Z,18.93
2019-02-27T07:51:25.196Z,19.37
2019-02-27T07:53:54.551Z,20.43
2019-02-27T07:56:23.943Z,20.90
2019-02-27T07:58:54.886Z,20.33
2019-02-27T08:01:24.259Z,20.27
2019-02-27T08:03:53.328Z,19.60
2019-02-27T08:06:23.646Z,20.20
2019-02-27T08:08:56.886Z,19.47
2019-02-27T08:11:23.736Z,20.03
2019-02-27T08:13:55.543Z,20.23
2019-02-27T08:16:24.935Z,19.60
2019-02-27T08:18:54.274Z,20.50
2019-02-27T08:21:26.198Z,19.90
2019-02-27T08:23:55.545Z,19.83
2019-02-27T08:26:24.710Z,19.27
2019-02-27T08:28:53.758Z,19.67
2019-02-27T08:31:27.999Z,19.70
2019-02-27T08:33:56.371Z,20.80
2019-02-27T08:36:25.282Z,20.23
2019-02-27T08:38:54.321Z,19.43
2019-02-27T08:41:29.107Z,19.67
2019-02-27T08:43:58.189Z,20.20
2019-02-27T08:46:31.239Z,20.20
2019-02-27T08:49:00.443Z,19.10
2019-02-27T08:51:29.303Z,19.97
2019-02-27T08:53:59.893Z,18.90
2019-02-27T08:56:30.109Z,19.57
2019-02-27T08:59:04.999Z,18.60
2019-02-27T09:01:33.495Z,19.23
2019-02-27T09:04:03.537Z,19.33
2019-02-27T09:06:32.547Z,19.17
2019-02-27T09:09:02.165Z,20.10
2019-02-27T09:11:32.027Z,19.20
2019-02-27T09:14:01.395Z,19.60
2019-02-27T09:16:33.526Z,19.17
2019-02-27T09:19:03.445Z,19.23
2019-02-27T09:21:32.627Z,19.90
2019-02-27T09:24:02.002Z,20.33
2019-02-27T09:26:36.059Z,19.60
2019-02-27T09:29:03.163Z,19.27
2019-02-27T09:31:34.667Z,20.10
2019-02-27T09:34:03.640Z,20.23
2019-02-27T09:36:33.210Z,18.73
2019-02-27T09:39:03.707Z,18.73
2019-02-27T09:41:32.632Z,19.60
2019-02-27T09:44:01.719Z,18.70
2019-02-27T09:46:30.868Z,18.03
2019-02-27T09:48:59.994Z,18.13
2019-02-27T09:51:29.117Z,18.00
2019-02-27T09:54:05.500Z,17.73
2019-02-27T09:56:35.539Z,16.77
2019-02-27T09:59:04.621Z,16.93
2019-02-27T10:01:35.153Z,17.27
2019-02-27T10:04:10.212Z,16.10
2019-02-27T10:06:40.419Z,16.27
2019-02-27T10:09:18.660Z,17.20
2019-02-27T10:11:48.079Z,16.53
2019-02-27T10:14:20.995Z,16.70
2019-02-27T10:16:51.098Z,16.00
2019-02-27T10:19:20.639Z,15.97
2019-02-27T10:21:50.056Z,16.20
2019-02-27T10:24:21.318Z,17.03
2019-02-27T10:26:53.523Z,16.70
2019-02-27T10:29:21.594Z,16.73
2019-02-27T10:31:51.084Z,16.33
2019-02-27T10:34:20.289Z,16.10
2019-02-27T10:36:49.667Z,16.53
2019-02-27T10:39:18.611Z,15.77
2019-02-27T10:41:50.559Z,15.60
2019-02-27T10:44:19.142Z,15.83
2019-02-27T10:46:48.424Z,15.97
2019-02-27T10:49:21.364Z,13.37
2019-02-27T10:51:49.259Z,13.97
2019-02-27T10:54:22.487Z,14.53
2019-02-27T10:56:52.614Z,14.53
2019-02-27T10:59:22.352Z,14.20
2019-02-27T11:01:52.540Z,14.10
2019-02-27T11:04:21.738Z,14.93
2019-02-27T11:06:52.013Z,14.65
2019-02-27T11:09:26.556Z,14.73
2019-02-27T11:11:56.171Z,14.83
2019-02-27T11:14:31.791Z,14.93
2019-02-27T11:17:10.995Z,14.90
2019-02-27T11:19:40.635Z,14.18
2019-02-27T11:22:10.012Z,14.18
2019-02-27T11:24:39.391Z,15.03
2019-02-27T11:27:12.310Z,16.57
2019-02-27T11:29:41.773Z,14.50
2019-02-27T11:32:15.630Z,14.30
2019-02-27T11:34:48.299Z,13.68
2019-02-27T11:37:16.747Z,13.83
2019-02-27T11:39:46.736Z,14.50
2019-02-27T11:42:16.324Z,14.20
2019-02-27T11:44:49.468Z,14.75
2019-02-27T11:47:18.075Z,14.20
2019-02-27T11:49:48.613Z,14.05
2019-02-27T11:52:18.455Z,14.65
2019-02-27T11:57:27.335Z,14.28
2019-02-27T11:59:58.354Z,14.23
2019-02-27T12:02:36.923Z,14.03
2019-02-27T12:05:01.386Z,13.68
2019-02-27T12:07:30.395Z,13.45
2019-02-27T12:09:59.581Z,13.58
2019-02-27T12:12:28.612Z,13.55
2019-02-27T12:14:58.256Z,12.95
2019-02-27T12:17:27.816Z,11.88
2019-02-27T12:19:56.912Z,12.63
2019-02-27T12:22:26.576Z,12.70
2019-02-27T12:24:58.232Z,12.95
2019-02-27T12:27:48.577Z,13.90
2019-02-27T12:30:03.996Z,13.80
2019-02-27T12:32:34.428Z,13.05
2019-02-27T12:35:04.386Z,12.73
2019-02-27T12:37:34.719Z,12.63
2019-02-27T12:40:05.707Z,12.85
2019-02-27T12:42:37.315Z,14.38
2019-02-27T12:45:08.962Z,13.32
2019-02-27T12:47:40.644Z,12.80
2019-02-27T12:50:11.302Z,12.43
2019-02-27T12:52:44.367Z,12.47
2019-02-27T12:55:12.876Z,12.58
2019-02-27T12:57:44.605Z,12.73
2019-02-27T13:00:17.375Z,13.75
2019-02-27T13:02:50.463Z,12.95
2019-02-27T13:05:20.269Z,13.65
2019-02-27T13:07:49.979Z,13.90
2019-02-27T13:10:20.736Z,13.53
2019-02-27T13:12:51.860Z,12.30
2019-02-27T13:15:23.723Z,13.65
2019-02-27T13:17:58.247Z,14.15
2019-02-27T13:20:28.002Z,14.10
2019-02-27T13:22:57.554Z,15.10
2019-02-27T13:25:27.731Z,15.70
2019-02-27T13:27:57.488Z,15.95
2019-02-27T13:30:27.708Z,15.68
2019-02-27T13:33:00.702Z,15.03
2019-02-27T13:35:29.297Z,16.27
2019-02-27T13:37:58.914Z,15.03
2019-02-27T13:40:29.396Z,15.68
2019-02-27T13:43:01.069Z,15.68
2019-02-27T13:45:31.305Z,15.45
2019-02-27T13:50:36.929Z,16.40
2019-02-27T13:53:07.279Z,16.55
2019-02-27T13:55:36.806Z,15.10
2019-02-27T13:58:06.669Z,15.83
2019-02-27T14:00:36.546Z,16.67
2019-02-27T14:03:06.328Z,16.65
2019-02-27T14:05:36.589Z,15.68
2019-02-27T14:08:09.304Z,16.00
2019-02-27T14:10:38.823Z,17.48
2019-02-27T14:13:09.886Z,16.95
2019-02-27T14:15:40.468Z,17.52
2019-02-27T14:18:09.985Z,17.35
2019-02-27T14:20:42.384Z,17.12
2019-02-27T14:23:14.578Z,17.65
2019-02-27T14:25:44.234Z,17.32
2019-02-27T14:28:13.170Z,17.55
2019-02-27T14:30:44.998Z,17.77
2019-02-27T14:33:14.608Z,16.48
2019-02-27T14:35:44.921Z,18.02
2019-02-27T14:38:14.466Z,17.27
2019-02-27T14:40:44.796Z,17.12
2019-02-27T14:43:15.689Z,18.27
2019-02-27T14:45:45.431Z,17.27
2019-02-27T14:48:15.212Z,17.67
2019-02-27T14:50:44.524Z,17.35
2019-02-27T14:53:19.753Z,17.80
2019-02-27T14:55:48.995Z,16.67
2019-02-27T14:58:18.979Z,15.83
2019-02-27T15:00:48.406Z,17.67
2019-02-27T15:03:21.243Z,17.75
2019-02-27T15:05:50.749Z,17.42
2019-02-27T15:08:20.543Z,17.15
2019-02-27T15:10:50.106Z,17.98
2019-02-27T15:13:19.867Z,17.10
2019-02-27T15:15:49.453Z,18.17
2019-02-27T15:18:22.535Z,17.00
2019-02-27T15:20:51.183Z,17.77
2019-02-27T15:23:24.607Z,17.55
2019-02-27T15:25:52.545Z,16.65
2019-02-27T15:28:23.211Z,17.87
2019-02-27T15:30:52.795Z,17.67
2019-02-27T15:33:22.707Z,17.32
2019-02-27T15:35:55.114Z,17.25
2019-02-27T15:38:25.557Z,16.82
2019-02-27T15:40:55.556Z,17.48
2019-02-27T15:43:25.325Z,19.07
2019-02-27T15:45:54.912Z,18.65
2019-02-27T15:48:24.389Z,18.85
2019-02-27T15:50:57.458Z,18.30
2019-02-27T15:53:27.343Z,18.92
2019-02-27T15:55:57.864Z,18.52
2019-02-27T15:58:28.130Z,18.95
2019-02-27T16:01:01.733Z,19.85
2019-02-27T16:03:31.230Z,18.42
2019-02-27T16:06:04.945Z,18.75
2019-02-27T16:08:32.226Z,19.57
2019-02-27T16:11:02.142Z,19.05
2019-02-27T16:13:32.057Z,20.88
2019-02-27T16:16:04.794Z,19.37
2019-02-27T16:18:37.052Z,19.42
2019-02-27T16:21:06.703Z,19.30
2019-02-27T16:23:37.485Z,19.25
2019-02-27T16:26:08.235Z,19.23
2019-02-27T16:28:38.622Z,20.32
2019-02-27T16:31:07.908Z,19.52
2019-02-27T16:33:38.153Z,19.48
2019-02-27T16:38:42.519Z,19.67
2019-02-27T16:41:12.780Z,21.05
2019-02-27T16:43:42.048Z,19.57
2019-02-27T16:46:11.659Z,21.37
2019-02-27T16:48:41.180Z,20.82
2019-02-27T16:51:10.476Z,20.23
2019-02-27T16:53:39.445Z,20.32
2019-02-27T16:56:11.802Z,20.85
2019-02-27T16:58:41.055Z,20.50
2019-02-27T17:01:10.429Z,20.50
2019-02-27T17:03:39.722Z,20.80
2019-02-27T17:06:10.017Z,21.15
2019-02-27T17:08:39.564Z,20.60
2019-02-27T17:11:08.487Z,21.30
2019-02-27T17:13:37.343Z,20.47
2019-02-27T17:16:07.076Z,21.37
2019-02-27T17:18:37.819Z,20.95
2019-02-27T17:21:06.650Z,21.73
2019-02-27T17:23:35.644Z,21.27
2019-02-27T17:26:05.076Z,20.43
2019-02-27T17:28:34.404Z,21.60
2019-02-27T17:31:03.622Z,20.93
2019-02-27T17:33:35.133Z,20.27
2019-02-27T17:36:15.521Z,20.60
2019-02-27T17:38:49.950Z,20.97
2019-02-27T17:41:17.197Z,20.07
2019-02-27T17:43:46.282Z,21.33
2019-02-27T17:46:20.516Z,21.30
2019-02-27T17:48:47.259Z,21.40
2019-02-27T17:51:16.216Z,21.00
2019-02-27T17:53:45.251Z,20.43
2019-02-27T17:58:49.520Z,21.37
2019-02-27T18:01:24.974Z,21.77
2019-02-27T18:03:52.626Z,21.77
2019-02-27T18:06:21.622Z,20.47
2019-02-27T18:08:52.438Z,21.80
2019-02-27T18:11:21.938Z,22.03
2019-02-27T18:13:53.042Z,21.87
2019-02-27T18:16:24.517Z,21.67
2019-02-27T18:18:53.794Z,22.57
2019-02-27T18:21:23.031Z,23.47
2019-02-27T18:23:52.030Z,22.57
2019-02-27T18:26:21.076Z,21.30
2019-02-27T18:28:50.890Z,22.87
2019-02-27T18:31:19.879Z,24.30
2019-02-27T18:33:50.172Z,23.17
2019-02-27T18:36:19.395Z,23.30
2019-02-27T18:38:49.332Z,22.30
2019-02-27T18:41:22.129Z,22.77
2019-02-27T18:43:52.943Z,23.07
2019-02-27T18:46:24.863Z,22.70
2019-02-27T18:48:53.179Z,22.40
2019-02-27T18:51:22.517Z,24.10
2019-02-27T18:53:51.600Z,24.80
2019-02-27T18:56:20.452Z,24.63
2019-02-27T18:58:52.027Z,24.07
2019-02-27T19:01:20.824Z,24.47
2019-02-27T19:03:50.450Z,23.77
2019-02-27T19:06:20.003Z,25.27
2019-02-27T19:08:49.303Z,23.80
2019-02-27T19:11:18.625Z,23.97
2019-02-27T19:13:49.703Z,24.77
2019-02-27T19:16:20.710Z,23.90
2019-02-27T19:18:50.157Z,25.40
2019-02-27T19:21:19.918Z,23.07
2019-02-27T19:23:49.503Z,25.93
2019-02-27T19:26:23.217Z,24.93
2019-02-27T19:28:59.377Z,24.93
2019-02-27T19:31:24.797Z,24.83
2019-02-27T19:33:54.073Z,25.43
2019-02-27T19:36:24.237Z,25.37
2019-02-27T19:38:53.217Z,24.30
2019-02-27T19:41:22.585Z,24.63
2019-02-27T19:43:54.957Z,25.37
2019-02-27T19:46:22.233Z,26.00
2019-02-27T19:48:53.143Z,27.40
2019-02-27T19:51:22.605Z,26.93
2019-02-27T19:53:53.364Z,25.43
2019-02-27T19:56:22.345Z,25.57
2019-02-27T19:58:58.908Z,26.00
2019-02-27T20:01:27.878Z,25.50
2019-02-27T20:03:56.780Z,26.93
2019-02-27T20:06:28.884Z,25.37
2019-02-27T20:08:58.050Z,27.70
2019-02-27T20:11:27.085Z,27.30
2019-02-27T20:13:56.149Z,26.97
2019-02-27T20:16:25.935Z,26.97
2019-02-27T20:18:55.327Z,25.43
2019-02-27T20:21:24.619Z,26.17
2019-02-27T20:23:57.529Z,26.27
2019-02-27T20:26:25.550Z,26.07
2019-02-27T20:28:55.052Z,26.93
2019-02-27T20:31:27.334Z,27.40
2019-02-27T20:33:56.265Z,27.60
2019-02-27T20:36:29.840Z,27.10
2019-02-27T20:38:55.978Z,28.60
2019-02-27T20:41:24.924Z,28.53
2019-02-27T20:43:53.928Z,28.57
2019-02-27T20:46:24.569Z,29.90
2019-02-27T20:48:54.237Z,28.60
2019-02-27T20:51:23.177Z,28.67
2019-02-27T20:53:52.560Z,28.50
2019-02-27T20:56:23.761Z,28.87
2019-02-27T20:58:53.681Z,28.37
2019-02-27T21:01:25.752Z,29.37
2019-02-27T21:06:29.744Z,28.80
2019-02-27T21:08:59.731Z,28.73
2019-02-27T21:11:30.408Z,28.63
2019-02-27T21:14:00.117Z,31.00
2019-02-27T21:16:29.192Z,30.07
2019-02-27T21:18:58.508Z,30.90
2019-02-27T21:21:29.884Z,30.13
2019-02-27T21:23:58.989Z,30.17
2019-02-27T21:26:28.190Z,29.37
2019-02-27T21:29:05.229Z,30.47
2019-02-27T21:31:38.618Z,30.40
2019-02-27T21:34:07.532Z,30.60
2019-02-27T21:36:37.445Z,29.67
2019-02-27T21:39:07.068Z,29.43
2019-02-27T21:41:36.129Z,30.33
2019-02-27T21:44:05.483Z,29.90
2019-02-27T21:46:36.201Z,30.33
2019-02-27T21:49:07.910Z,30.93
2019-02-27T21:51:47.850Z,30.63
2019-02-27T21:54:15.555Z,30.20
2019-02-27T21:56:45.392Z,30.50
2019-02-27T21:59:14.534Z,30.77
2019-02-27T22:01:43.478Z,31.70
2019-02-27T22:04:15.757Z,31.60
2019-02-27T22:06:44.756Z,30.87
2019-02-27T22:09:14.611Z,30.70
2019-02-27T22:11:44.936Z,31.20
2019-02-27T22:14:16.657Z,31.77
2019-02-27T22:16:44.478Z,32.77
2019-02-27T22:19:13.720Z,32.80
2019-02-27T22:21:42.986Z,32.77
2019-02-27T22:24:12.310Z,34.73
2019-02-27T22:26:41.316Z,34.70
2019-02-27T22:29:10.766Z,33.07
2019-02-27T22:31:40.540Z,33.20
2019-02-27T22:34:10.885Z,34.37
2019-02-27T22:36:40.007Z,32.57
2019-02-27T22:39:09.094Z,33.83
2019-02-27T22:41:40.675Z,35.77
2019-02-27T22:44:09.897Z,33.60
2019-02-27T22:46:38.904Z,34.53
2019-02-27T22:49:08.152Z,33.13
2019-02-27T22:51:37.761Z,35.67
2019-02-27T22:54:06.804Z,35.23
2019-02-27T22:56:35.766Z,36.17
2019-02-27T22:59:04.685Z,37.17
2019-02-27T23:01:50.494Z,35.47
2019-02-27T23:04:19.006Z,37.03
2019-02-27T23:06:48.248Z,35.23
2019-02-27T23:09:21.210Z,36.63
2019-02-27T23:11:49.960Z,37.30
2019-02-27T23:14:19.807Z,37.73
2019-02-27T23:16:49.643Z,36.73
2019-02-27T23:19:19.114Z,39.00
2019-02-27T23:21:48.537Z,39.13
2019-02-27T23:24:20.430Z,39.57
2019-02-27T23:26:54.374Z,39.37
2019-02-27T23:29:20.600Z,41.67
2019-02-27T23:31:49.784Z,40.93
2019-02-27T23:34:18.746Z,42.73
2019-02-27T23:36:48.034Z,39.83
2019-02-27T23:39:17.047Z,40.27
2019-02-27T23:41:46.443Z,40.67
2019-02-27T23:44:15.439Z,40.13
2019-02-27T23:46:49.761Z,41.10
2019-02-27T23:49:15.575Z,40.10
2019-02-27T23:51:47.697Z,39.97
2019-02-27T23:54:15.605Z,40.63
2019-02-27T23:56:47.951Z,40.87
2019-02-27T23:59:17.199Z,40.80
